Time;durP1;ratioP1;P1;durP2;ratioP2;P2;SDS_P1;SDS_P2;PMS_P1;PMS_P2;Temp;Humidity;BMP_temperature;BMP_pressure;BME280_temperature;BME280_humidity;BME280_pressure;Samples;Min_cycle;Max_cycle;Signal;HPM_P1;HPM_P2
2022/10/04 00:01:49;;;;;;;3.20;2.90;;;;;;;10.96;70.88;98240.28;6231099;22;20019;-73
2022/10/04 00:04:40;;;;;;;8.05;3.58;;;;;;;10.86;71.36;98252.81;6231105;22;20090;-77
2022/10/04 00:07:30;;;;;;;2.22;1.88;;;;;;;11.05;70.94;98239.44;6211233;22;20091;-76
2022/10/04 00:10:21;;;;;;;3.65;1.80;;;;;;;10.97;71.38;98255.31;6215449;22;20015;-76
2022/10/04 00:12:55;;;;;;;4.32;3.33;;;;;;;11.02;71.04;98255.72;6222435;22;20035;-73
2022/10/04 00:15:29;;;;;;;1.52;1.42;;;;;;;11.11;70.94;98254.00;6234247;22;20038;-72
2022/10/04 00:18:09;;;;;;;4.22;3.80;;;;;;;11.01;70.83;98251.38;6233926;22;20016;-73
2022/10/04 00:20:49;;;;;;;3.65;3.35;;;;;;;11.03;71.07;98254.75;6238672;22;20019;-73
2022/10/04 00:23:23;;;;;;;4.60;3.88;;;;;;;10.94;70.72;98247.63;6240416;22;20019;-73
2022/10/04 00:25:47;;;;;;;2.67;2.47;;;;;;;10.89;70.68;98244.53;6242565;22;20709;-72
2022/10/04 00:28:24;;;;;;;5.95;3.22;;;;;;;11.09;70.16;98250.63;6229588;22;20455;-74
2022/10/04 00:31:07;;;;;;;5.22;3.25;;;;;;;11.03;70.07;98254.75;6231460;22;20023;-72
2022/10/04 00:33:45;;;;;;;5.97;2.83;;;;;;;11.01;71.04;98263.88;6231493;22;20094;-73
2022/10/04 00:36:22;;;;;;;6.40;3.40;;;;;;;11.00;70.89;98255.03;6232007;22;20011;-71
2022/10/04 00:39:25;;;;;;;20.48;4.85;;;;;;;11.12;70.35;98269.84;6230527;22;20015;-74
2022/10/04 00:41:56;;;;;;;4.45;3.53;;;;;;;10.97;70.05;98262.47;6059257;23;20034;-73
2022/10/04 00:44:29;;;;;;;4.65;3.20;;;;;;;11.00;70.46;98278.19;6117727;23;20017;-73
2022/10/04 00:46:57;;;;;;;3.45;2.22;;;;;;;11.06;70.01;98269.63;6058334;23;20013;-76
2022/10/04 00:49:28;;;;;;;8.20;3.53;;;;;;;11.04;69.63;98269.75;6107821;23;20022;-73
2022/10/04 00:52:04;;;;;;;5.43;3.35;;;;;;;10.91;70.62;98269.22;6113147;23;20079;-73
2022/10/04 00:54:41;;;;;;;9.02;4.25;;;;;;;10.93;70.60;98283.28;6090767;23;20019;-74
2022/10/04 00:57:20;;;;;;;4.38;3.17;;;;;;;10.94;70.92;98278.78;6111484;23;20037;-76
2022/10/04 00:59:49;;;;;;;4.43;3.20;;;;;;;10.98;70.59;98281.00;6107127;23;20100;-75
2022/10/04 01:02:44;;;;;;;4.20;3.00;;;;;;;10.99;70.30;98285.34;6107546;23;20038;-76
2022/10/04 01:05:13;;;;;;;5.63;3.75;;;;;;;10.93;70.48;98280.59;6082621;23;20013;-73
2022/10/04 01:07:42;;;;;;;3.42;2.50;;;;;;;11.06;69.80;98286.44;6107440;23;20460;-74
2022/10/04 01:10:17;;;;;;;3.35;3.05;;;;;;;10.95;70.32;98277.78;6107217;23;20573;-73
2022/10/04 01:12:51;;;;;;;3.50;2.60;;;;;;;10.96;70.67;98274.13;6058022;23;20024;-76
2022/10/04 01:15:16;;;;;;;4.90;3.70;;;;;;;10.77;70.83;98264.34;6108548;23;20060;-74
2022/10/04 01:17:40;;;;;;;4.93;3.70;;;;;;;10.81;71.40;98265.75;6128505;22;20012;-73
2022/10/04 01:20:32;;;;;;;3.85;3.50;;;;;;;10.81;71.93;98276.41;6228406;22;20015;-73
2022/10/04 01:22:57;;;;;;;5.68;3.80;;;;;;;10.76;70.43;98274.19;6230659;22;20032;-75
2022/10/04 01:25:42;;;;;;;5.00;3.70;;;;;;;10.70;71.34;98277.44;6231085;22;20022;-67
2022/10/04 01:28:06;;;;;;;6.57;3.97;;;;;;;10.58;71.83;98278.56;6229829;22;20016;-70
2022/10/04 01:30:31;;;;;;;7.03;3.72;;;;;;;10.55;72.15;98284.19;6231286;22;20368;-70
2022/10/04 01:32:55;;;;;;;10.00;4.18;;;;;;;10.62;72.28;98284.44;6231578;22;20012;-73
2022/10/04 01:35:20;;;;;;;2.35;2.15;;;;;;;10.83;71.05;98293.13;6203771;22;20454;-70
2022/10/04 01:37:45;;;;;;;9.57;3.53;;;;;;;10.70;71.44;98284.59;6230329;22;20461;-70
2022/10/04 01:40:10;;;;;;;5.20;3.90;;;;;;;10.60;72.11;98299.75;6228351;22;20018;-71
2022/10/04 01:42:42;;;;;;;4.43;3.38;;;;;;;10.72;71.96;98279.97;6228551;22;20023;-71
2022/10/04 01:45:14;;;;;;;4.85;3.70;;;;;;;10.68;72.42;98305.22;6231118;22;20520;-72
2022/10/04 01:48:02;;;;;;;7.22;4.45;;;;;;;10.66;72.66;98302.69;6230271;22;20042;-72
2022/10/04 01:50:32;;;;;;;7.03;3.85;;;;;;;10.57;72.17;98287.56;6229090;22;20454;-72
2022/10/04 01:53:12;;;;;;;5.82;3.85;;;;;;;10.51;73.08;98288.09;6229149;22;20019;-72
2022/10/04 01:55:40;;;;;;;3.45;2.65;;;;;;;10.64;72.50;98304.63;6227988;22;20026;-72
2022/10/04 01:58:12;;;;;;;4.20;3.55;;;;;;;10.69;72.36;98313.06;6230132;22;20015;-71
2022/10/04 02:00:42;;;;;;;5.53;4.22;;;;;;;10.64;72.51;98303.78;6231206;22;20019;-72
2022/10/04 02:03:32;;;;;;;4.80;3.72;;;;;;;10.62;72.46;98303.09;6205475;22;20071;-72
2022/10/04 02:06:00;;;;;;;6.40;4.65;;;;;;;10.38;73.18;98315.06;6234154;22;20019;-72
2022/10/04 02:08:29;;;;;;;8.23;3.03;;;;;;;10.53;72.29;98308.31;6237120;22;20015;-71
2022/10/04 02:10:55;;;;;;;8.23;4.93;;;;;;;10.40;72.92;98307.75;6232238;22;20007;-71
2022/10/04 02:13:23;;;;;;;6.13;5.30;;;;;;;10.34;73.25;98311.00;6206638;22;20451;-71
2022/10/04 02:15:48;;;;;;;5.85;4.18;;;;;;;10.32;73.14;98307.63;6231966;22;20064;-73
2022/10/04 02:18:17;;;;;;;9.18;3.85;;;;;;;10.39;73.25;98311.38;6229446;22;20015;-71
2022/10/04 02:20:43;;;;;;;3.17;2.88;;;;;;;10.35;73.58;98320.66;6203851;22;20015;-71
2022/10/04 02:23:09;;;;;;;3.08;2.65;;;;;;;10.48;72.54;98315.91;6233091;22;20020;-71
2022/10/04 02:25:37;;;;;;;4.25;3.40;;;;;;;10.31;73.63;98316.59;6231434;22;20098;-72
2022/10/04 02:28:09;;;;;;;5.47;3.80;;;;;;;10.29;73.42;98315.03;6230079;22;20015;-71
2022/10/04 02:30:37;;;;;;;4.80;4.03;;;;;;;10.22;73.79;98320.09;6234575;22;20020;-73
2022/10/04 02:33:01;;;;;;;5.45;4.13;;;;;;;10.25;74.11;98317.16;6232046;22;20020;-72
2022/10/04 02:35:46;;;;;;;3.78;3.13;;;;;;;10.35;74.02;98320.66;6180596;22;20357;-71
2022/10/04 02:38:21;;;;;;;5.28;4.15;;;;;;;10.39;73.64;98319.38;6206641;22;20022;-73
2022/10/04 02:40:56;;;;;;;7.55;4.40;;;;;;;10.23;73.87;98323.59;6231177;22;20019;-72
2022/10/04 02:43:23;;;;;;;6.55;4.38;;;;;;;10.24;73.92;98325.28;6229738;22;20073;-71
2022/10/04 02:45:50;;;;;;;6.05;4.70;;;;;;;10.13;74.40;98319.09;6226407;22;20073;-73
2022/10/04 02:48:33;;;;;;;8.68;3.67;;;;;;;10.15;74.73;98322.47;6201982;22;20358;-72
2022/10/04 02:51:16;;;;;;;5.35;3.22;;;;;;;10.10;74.90;98322.00;6176492;22;20011;-71
2022/10/04 02:53:58;;;;;;;5.82;4.63;;;;;;;9.98;75.48;98323.13;6227771;22;20345;-71
2022/10/04 02:56:24;;;;;;;5.68;3.60;;;;;;;9.96;75.37;98335.72;6227564;22;20015;-73
2022/10/04 02:58:49;;;;;;;4.88;3.88;;;;;;;10.13;74.54;98335.06;6227503;22;20016;-73
2022/10/04 03:01:26;;;;;;;5.43;3.55;;;;;;;10.19;74.65;98345.19;6229138;22;20020;-73
2022/10/04 03:03:52;;;;;;;11.23;4.82;;;;;;;10.13;75.00;98347.53;6201129;22;20016;-74
2022/10/04 03:06:19;;;;;;;9.27;5.75;;;;;;;10.01;74.92;98338.81;6200886;22;20015;-73
2022/10/04 03:08:58;;;;;;;8.80;5.18;;;;;;;9.98;75.37;98339.09;6228628;22;20102;-72
2022/10/04 03:11:26;;;;;;;7.60;4.95;;;;;;;10.02;75.71;98343.19;6203109;22;20523;-71
2022/10/04 03:13:54;;;;;;;6.35;4.57;;;;;;;10.03;74.80;98350.19;6229626;22;20564;-72
2022/10/04 03:16:20;;;;;;;8.63;5.05;;;;;;;9.90;75.71;98338.09;6205010;22;20038;-74
2022/10/04 03:18:47;;;;;;;6.78;5.30;;;;;;;9.86;75.94;98339.34;6205356;22;20047;-73
2022/10/04 03:21:14;;;;;;;9.35;6.10;;;;;;;9.88;75.80;98340.06;6205764;22;20047;-73
2022/10/04 03:23:40;;;;;;;10.27;4.95;;;;;;;10.04;75.03;98341.22;6233276;22;20020;-73
2022/10/04 03:26:18;;;;;;;4.45;3.45;;;;;;;10.11;74.93;98341.50;6229820;22;20016;-72
2022/10/04 03:28:44;;;;;;;9.80;5.45;;;;;;;9.89;75.20;98331.94;6203767;22;20019;-72
2022/10/04 03:31:09;;;;;;;8.23;4.57;;;;;;;9.91;75.93;98339.78;6229028;22;20042;-73
2022/10/04 03:33:34;;;;;;;5.30;3.90;;;;;;;9.97;75.60;98344.56;6230209;22;20062;-72
2022/10/04 03:36:00;;;;;;;4.97;3.80;;;;;;;10.06;74.99;98352.56;6203154;22;20011;-71
2022/10/04 03:38:27;;;;;;;6.45;4.88;;;;;;;9.93;75.01;98333.31;6202795;22;20015;-72
2022/10/04 03:40:57;;;;;;;4.18;3.25;;;;;;;10.16;74.56;98352.56;6230172;22;20011;-75
2022/10/04 03:43:27;;;;;;;5.75;4.35;;;;;;;10.13;74.60;98347.53;6228831;22;20034;-75
2022/10/04 03:45:52;;;;;;;3.90;3.53;;;;;;;10.15;75.44;98345.59;6228717;22;20015;-75
2022/10/04 03:48:27;;;;;;;4.32;3.80;;;;;;;10.11;75.50;98355.66;6207124;22;20030;-75
2022/10/04 03:50:53;;;;;;;4.45;3.85;;;;;;;10.18;74.46;98353.31;6234579;22;20335;-74
2022/10/04 03:53:27;;;;;;;9.57;5.88;;;;;;;10.06;74.75;98349.03;6230653;22;20095;-73
2022/10/04 03:55:52;;;;;;;11.48;5.70;;;;;;;10.08;74.56;98352.41;6231575;22;20455;-74
2022/10/04 03:58:18;;;;;;;6.03;4.47;;;;;;;10.06;74.99;98365.03;6231181;22;20332;-72
2022/10/04 04:00:55;;;;;;;6.53;4.65;;;;;;;10.05;74.98;98358.84;6233173;22;20098;-70
2022/10/04 04:03:21;;;;;;;7.95;5.00;;;;;;;10.07;75.23;98348.06;6236442;22;20088;-72
2022/10/04 04:05:52;;;;;;;8.93;5.40;;;;;;;10.02;74.66;98368.97;6233766;22;20026;-71
2022/10/04 04:08:23;;;;;;;5.65;4.60;;;;;;;10.04;75.07;98362.53;6205874;22;20016;-72
2022/10/04 04:10:53;;;;;;;8.07;5.80;;;;;;;10.02;75.44;98374.28;6231318;22;20035;-72
2022/10/04 04:13:24;;;;;;;8.07;5.20;;;;;;;9.90;75.45;98351.41;6234359;22;20418;-72
2022/10/04 04:15:50;;;;;;;17.02;5.38;;;;;;;9.97;74.96;98363.19;6235591;22;20016;-74
2022/10/04 04:18:31;;;;;;;7.43;3.30;;;;;;;10.04;74.86;98375.84;6233824;22;20019;-73
2022/10/04 04:20:59;;;;;;;9.10;5.22;;;;;;;9.91;75.37;98363.75;6233928;22;20031;-73
2022/10/04 04:23:31;;;;;;;6.20;4.63;;;;;;;9.91;75.71;98375.25;6233358;22;20042;-73
2022/10/04 04:26:10;;;;;;;6.97;4.90;;;;;;;9.88;76.21;98374.66;6232907;22;20025;-74
2022/10/04 04:28:43;;;;;;;8.55;4.57;;;;;;;10.04;75.84;98373.19;6237640;22;20015;-73
2022/10/04 04:31:17;;;;;;;6.28;4.35;;;;;;;10.01;75.63;98373.44;6234755;22;20027;-72
2022/10/04 04:33:48;;;;;;;8.43;4.15;;;;;;;10.05;75.56;98380.16;6235890;22;20429;-72
2022/10/04 04:36:15;;;;;;;6.68;4.45;;;;;;;10.11;75.20;98371.63;6237740;22;20016;-74
2022/10/04 04:41:27;;;;;;;;;;;;;;;10.43;74.57;98382.06;6170561;23;20023;-76
2022/10/04 04:43:51;;;;;;;7.13;4.20;;;;;;;10.30;74.20;98378.00;6170674;23;19912;-77
2022/10/04 04:46:16;;;;;;;4.75;3.70;;;;;;;10.36;75.15;98385.44;6144071;23;20063;-75
2022/10/04 04:48:47;;;;;;;8.77;5.05;;;;;;;10.59;73.98;98386.84;6145325;23;20016;-70
2022/10/04 04:51:19;;;;;;;6.35;3.90;;;;;;;10.78;74.05;98392.16;6172184;23;20020;-72
2022/10/04 04:53:46;;;;;;;10.23;4.85;;;;;;;10.88;72.70;98392.16;6146772;23;20113;-71
2022/10/04 04:56:11;;;;;;;7.10;4.63;;;;;;;10.91;72.01;98392.72;6121548;23;20020;-73
2022/10/04 04:58:42;;;;;;;3.35;2.92;;;;;;;11.17;72.20;98392.13;6143542;23;20012;-74
2022/10/04 05:01:35;;;;;;;6.10;4.60;;;;;;;11.17;71.78;98408.94;6167816;23;20024;-75
2022/10/04 05:04:11;;;;;;;3.67;3.00;;;;;;;11.28;71.26;98405.31;6145212;23;20020;-73
2022/10/04 05:06:47;;;;;;;7.45;3.67;;;;;;;11.21;70.74;98413.03;6095128;23;20498;-76
2022/10/04 05:09:23;;;;;;;8.00;4.40;;;;;;;11.41;71.75;98419.16;6171924;23;20050;-78
2022/10/04 05:11:49;;;;;;;7.43;4.30;;;;;;;11.56;70.61;98423.03;6119580;23;20017;-79
2022/10/04 05:14:16;;;;;;;6.07;4.40;;;;;;;11.52;70.59;98420.78;6171437;23;20420;-77
2022/10/04 05:16:43;;;;;;;3.38;2.80;;;;;;;11.67;70.24;98427.38;6120248;23;20023;-76
2022/10/04 05:19:34;;;;;;;3.33;3.03;;;;;;;12.17;68.42;98409.19;6218149;22;20049;-77
2022/10/04 05:22:05;;;;;;;6.10;4.65;;;;;;;12.25;66.62;98419.09;6229682;22;20398;-77
2022/10/04 05:24:33;;;;;;;5.45;4.45;;;;;;;12.03;67.98;98425.69;6228711;22;20019;-76
2022/10/04 05:27:01;;;;;;;4.80;3.75;;;;;;;12.00;68.25;98423.31;6228689;22;20016;-77
2022/10/04 05:29:31;;;;;;;6.20;3.60;;;;;;;11.90;67.88;98412.69;6229671;22;20233;-76
2022/10/04 05:32:20;;;;;;;6.07;4.43;;;;;;;11.73;68.51;98420.63;6228731;22;20077;-78
2022/10/04 05:34:48;;;;;;;7.72;4.10;;;;;;;11.87;68.64;98434.34;6227922;22;20736;-78
2022/10/04 05:37:41;;;;;;;6.93;4.32;;;;;;;11.78;68.93;98427.22;6230197;22;20016;-77
2022/10/04 05:40:17;;;;;;;6.82;4.70;;;;;;;11.76;69.25;98433.69;6227460;22;20022;-76
2022/10/04 05:42:44;;;;;;;5.03;4.47;;;;;;;11.83;68.42;98432.97;6228030;22;20068;-72
2022/10/04 05:45:18;;;;;;;6.65;3.65;;;;;;;11.88;68.93;98432.50;6227189;22;20023;-72
2022/10/04 05:47:44;;;;;;;7.00;5.53;;;;;;;11.84;67.68;98433.81;6227849;22;20011;-72
2022/10/04 05:50:15;;;;;;;5.43;4.38;;;;;;;11.83;68.24;98432.13;6229340;22;20332;-73
2022/10/04 05:52:40;;;;;;;5.72;4.75;;;;;;;11.59;68.78;98432.59;6229443;22;20116;-71
2022/10/04 05:55:11;;;;;;;5.28;3.75;;;;;;;11.64;68.87;98438.31;6230207;22;20016;-77
2022/10/04 05:58:05;;;;;;;5.38;4.47;;;;;;;11.73;68.83;98431.28;6227935;22;20434;-76
2022/10/04 06:00:44;;;;;;;7.85;4.68;;;;;;;11.60;68.93;98452.97;6202377;22;20019;-75
2022/10/04 06:03:16;;;;;;;6.60;4.90;;;;;;;11.55;68.75;98447.22;6203807;22;20023;-76
2022/10/04 06:06:25;;;;;;;7.15;4.50;;;;;;;11.46;69.66;98446.25;6228392;22;20019;-75
2022/10/04 06:09:15;;;;;;;6.60;4.15;;;;;;;11.43;69.70;98448.34;6043063;23;20036;-75
2022/10/04 06:12:10;;;;;;;10.23;4.50;;;;;;;11.35;69.67;98446.41;6082876;23;20397;-75
2022/10/04 06:15:01;;;;;;;7.15;5.22;;;;;;;11.30;70.43;98446.00;6106852;23;20017;-75
2022/10/04 06:17:50;;;;;;;6.63;4.40;;;;;;;11.28;70.42;98453.31;6083005;23;20515;-76
2022/10/04 06:20:46;;;;;;;7.03;4.30;;;;;;;11.39;70.31;98471.00;6020269;23;20045;-76
2022/10/04 06:23:22;;;;;;;8.88;5.22;;;;;;;11.17;70.58;98475.63;6020110;23;20102;-77
2022/10/04 06:25:53;;;;;;;7.63;4.38;;;;;;;11.37;69.70;98456.94;5996330;23;20072;-74
2022/10/04 06:28:29;;;;;;;4.72;3.25;;;;;;;11.48;69.23;98480.81;5972560;23;20019;-74
2022/10/04 06:30:54;;;;;;;8.02;4.80;;;;;;;11.46;68.44;98462.25;5996189;23;20550;-74
2022/10/04 06:33:41;;;;;;;6.35;4.85;;;;;;;11.45;68.54;98465.91;6004107;23;20446;-75
2022/10/04 06:36:09;;;;;;;19.52;4.50;;;;;;;11.52;68.91;98466.16;5999041;23;20038;-74
2022/10/04 06:38:52;;;;;;;5.15;3.63;;;;;;;11.65;68.23;98466.69;6049416;23;20070;-75
2022/10/04 06:41:35;;;;;;;5.88;4.50;;;;;;;11.60;68.54;98477.00;6182692;23;20020;-75
2022/10/04 06:44:14;;;;;;;7.80;4.32;;;;;;;11.73;67.42;98485.53;6148966;23;20019;-74
2022/10/04 06:46:49;;;;;;;8.35;4.68;;;;;;;11.78;67.77;98472.59;6123976;23;20109;-74
2022/10/04 06:49:32;;;;;;;4.57;4.03;;;;;;;11.66;67.81;98463.06;6129729;23;20120;-74
2022/10/04 06:52:20;;;;;;;6.05;4.38;;;;;;;11.68;67.96;98466.41;6169060;23;20464;-75
2022/10/04 06:55:23;;;;;;;11.10;3.58;;;;;;;11.91;66.84;98465.09;6153446;23;20406;-74
2022/10/04 06:58:23;;;;;;;5.80;4.32;;;;;;;11.72;67.10;98461.63;6189003;22;20076;-74
2022/10/04 07:00:58;;;;;;;5.85;4.32;;;;;;;11.69;67.36;98470.78;6178173;22;20094;-74
2022/10/04 07:04:01;;;;;;;6.60;4.53;;;;;;;11.85;66.81;98471.03;6214044;22;20016;-72
2022/10/04 07:06:36;;;;;;;3.28;2.97;;;;;;;11.94;66.61;98475.50;6060080;23;20021;-72
2022/10/04 07:09:04;;;;;;;10.05;4.13;;;;;;;11.91;65.18;98474.94;6108095;23;20181;-71
2022/10/04 07:11:42;;;;;;;4.53;3.88;;;;;;;11.92;65.75;98504.19;6059017;23;20072;-71
2022/10/04 07:14:15;;;;;;;6.57;4.15;;;;;;;11.96;65.39;98470.84;6108300;23;20079;-71
2022/10/04 07:16:56;;;;;;;5.33;4.37;;;;;;;11.95;66.07;98476.34;6108170;23;20411;-71
2022/10/04 07:19:51;;;;;;;6.85;4.53;;;;;;;12.07;66.04;98467.16;6107977;23;20021;-73
2022/10/04 07:22:27;;;;;;;4.63;3.67;;;;;;;12.24;64.65;98474.38;6081459;23;20377;-73
2022/10/04 07:25:22;;;;;;;8.20;4.28;;;;;;;12.19;65.05;98478.50;6108102;23;20376;-73
2022/10/04 07:31:19;;;;;;;6.72;3.30;;;;;;;12.10;65.28;98474.84;6082975;23;20072;-73
2022/10/04 07:33:49;;;;;;;4.25;3.65;;;;;;;12.10;64.99;98487.38;6083826;23;20522;-73
2022/10/04 07:36:23;;;;;;;4.30;3.78;;;;;;;12.00;65.06;98484.75;6107930;23;20044;-72
2022/10/04 07:38:53;;;;;;;7.97;4.07;;;;;;;11.98;65.34;98474.19;6083548;23;20017;-72
2022/10/04 07:41:27;;;;;;;14.15;4.20;;;;;;;12.03;65.54;98472.94;6058992;23;20013;-73
2022/10/04 07:44:03;;;;;;;7.88;4.18;;;;;;;12.17;65.65;98480.47;6192875;22;20095;-71
2022/10/04 07:46:35;;;;;;;6.60;4.55;;;;;;;12.38;64.58;98472.19;6203795;22;20039;-72
2022/10/04 07:49:00;;;;;;;4.00;3.67;;;;;;;12.89;63.16;98474.22;6229243;22;20023;-71
2022/10/04 07:51:40;;;;;;;5.13;3.97;;;;;;;13.34;61.92;98469.66;6230659;22;20015;-72
2022/10/04 07:54:16;;;;;;;4.63;3.70;;;;;;;13.61;60.90;98465.16;6204055;22;20423;-72
2022/10/04 07:56:58;;;;;;;4.82;4.00;;;;;;;13.69;61.44;98468.72;6229122;22;20043;-73
2022/10/04 07:59:56;;;;;;;5.93;4.03;;;;;;;13.69;60.79;98474.06;6203565;22;20350;-71
2022/10/04 08:02:46;;;;;;;5.85;4.15;;;;;;;13.71;59.96;98460.53;6203991;22;20035;-71
2022/10/04 08:05:35;;;;;;;5.82;4.00;;;;;;;13.56;60.46;98468.28;6230490;22;20015;-72
2022/10/04 08:08:13;;;;;;;6.60;4.30;;;;;;;13.67;60.63;98470.72;6232563;22;20035;-71
2022/10/04 08:11:16;;;;;;;4.95;3.97;;;;;;;14.12;60.65;98465.09;6205474;22;20043;-71
2022/10/04 08:14:07;;;;;;;5.45;3.38;;;;;;;15.10;55.92;98443.94;6233252;22;20008;-73
2022/10/04 08:16:50;;;;;;;6.55;3.95;;;;;;;15.11;55.91;98469.78;6234192;22;20091;-73
2022/10/04 08:19:29;;;;;;;2.90;2.67;;;;;;;14.68;55.75;98463.66;6229911;22;20026;-71
2022/10/04 08:22:14;;;;;;;4.63;3.50;;;;;;;14.37;57.29;98474.09;6229418;22;20027;-72
2022/10/04 08:24:55;;;;;;;8.05;4.07;;;;;;;14.09;57.34;98468.13;6229039;22;20011;-74
2022/10/04 08:29:41;;;;;;;4.50;3.55;;;;;;;13.94;57.32;98468.88;6230800;22;20099;-72
2022/10/04 08:30:43;;;;;;;6.80;3.42;;;;;;;13.66;58.32;98461.00;6229603;22;20108;-74
2022/10/04 08:33:41;;;;;;;5.68;3.47;;;;;;;13.50;58.96;98468.94;6203251;22;20016;-73
2022/10/04 08:36:32;;;;;;;9.93;4.32;;;;;;;13.47;59.33;98473.75;6231611;22;20023;-74
2022/10/04 08:38:58;;;;;;;9.32;4.03;;;;;;;13.38;59.06;98471.03;6208011;22;20534;-74
2022/10/04 08:41:39;;;;;;;5.30;3.78;;;;;;;13.53;59.01;98467.78;6232058;22;20043;-75
2022/10/04 08:44:19;;;;;;;5.18;3.67;;;;;;;13.78;58.19;98462.41;6232599;22;20020;-75
2022/10/04 08:47:20;;;;;;;5.90;3.65;;;;;;;14.01;57.68;98465.38;6231386;22;20016;-74
2022/10/04 08:50:07;;;;;;;3.25;2.40;;;;;;;14.15;57.07;98467.47;6232595;22;20397;-76
2022/10/04 08:52:58;;;;;;;6.93;3.33;;;;;;;14.02;57.26;98468.91;6234977;22;20057;-74
2022/10/04 08:56:07;;;;;;;3.38;3.08;;;;;;;13.83;57.80;98469.97;6238119;22;20042;-73
2022/10/04 08:59:09;;;;;;;5.75;3.40;;;;;;;13.85;57.88;98470.66;6233410;22;20038;-74
2022/10/04 09:02:11;;;;;;;6.35;3.70;;;;;;;13.86;57.34;98460.81;6083418;23;20076;-74
2022/10/04 09:05:13;;;;;;;9.18;2.72;;;;;;;14.19;56.38;98465.31;6069226;23;20089;-73
2022/10/04 09:07:50;;;;;;;9.85;4.18;;;;;;;14.76;56.37;98452.94;6108107;23;20017;-75
2022/10/04 09:10:35;;;;;;;4.22;3.80;;;;;;;16.17;54.07;98452.50;6108225;23;20021;-75
2022/10/04 09:13:12;;;;;;;10.70;5.30;;;;;;;17.52;50.93;98443.03;6108200;23;20010;-73
2022/10/04 09:16:25;;;;;;;3.47;3.13;;;;;;;17.74;47.94;98445.72;6069366;23;20022;-73
2022/10/04 09:19:23;;;;;;;2.15;1.85;;;;;;;17.80;48.09;98444.16;6021206;23;20023;-73
2022/10/04 09:22:08;;;;;;;3.80;3.25;;;;;;;17.83;47.55;98443.81;5996798;23;20026;-74
2022/10/04 09:24:51;;;;;;;7.72;3.75;;;;;;;18.07;47.85;98434.56;6020585;23;20025;-75
2022/10/04 09:27:45;;;;;;;4.88;2.63;;;;;;;18.58;45.23;98432.78;6021518;23;20019;-73
2022/10/04 09:30:10;;;;;;;7.07;3.93;;;;;;;18.36;44.57;98421.06;6021393;23;20018;-73
2022/10/04 09:32:49;;;;;;;4.13;3.03;;;;;;;18.10;45.18;98439.59;6031684;23;20247;-74
2022/10/04 09:35:28;;;;;;;7.05;3.50;;;;;;;17.11;47.39;98442.56;6027613;23;20018;-73
2022/10/04 09:38:29;;;;;;;7.10;3.70;;;;;;;16.54;49.46;98435.69;6048471;23;20012;-75
2022/10/04 09:41:25;;;;;;;3.67;3.38;;;;;;;16.20;49.61;98464.75;6176642;23;20093;-74
2022/10/04 09:44:11;;;;;;;3.03;2.67;;;;;;;15.79;49.78;98443.38;6160283;23;20020;-74
2022/10/04 09:46:50;;;;;;;3.42;3.10;;;;;;;15.21;51.29;98441.75;6166656;23;20578;-74
2022/10/04 09:49:39;;;;;;;6.82;3.63;;;;;;;15.10;51.75;98446.63;6180450;22;20026;-73
2022/10/04 09:52:14;;;;;;;7.47;3.50;;;;;;;14.85;52.50;98457.31;6228969;22;20086;-73
2022/10/04 09:54:44;;;;;;;;;;;;;;;14.75;53.11;98442.38;6228888;22;20094;-73
2022/10/04 09:57:53;;;;;;;5.97;3.45;;;;;;;14.60;53.97;98439.50;6228352;22;20040;-73
2022/10/04 10:00:23;;;;;;;9.48;4.35;;;;;;;14.22;55.27;98454.25;6229593;22;20145;-75
2022/10/04 10:03:14;;;;;;;11.15;4.35;;;;;;;14.10;57.18;98450.22;6180781;22;20026;-73
2022/10/04 10:06:02;;;;;;;7.65;4.78;;;;;;;13.53;60.10;98452.56;6233218;22;20494;-72
2022/10/04 10:08:42;;;;;;;4.63;3.20;;;;;;;12.88;62.74;98462.69;6241234;22;20092;-71
2022/10/04 10:14:39;;;;;;;4.65;3.42;;;;;;;12.35;65.06;98473.34;6234606;22;20355;-71
2022/10/04 10:17:22;;;;;;;10.45;3.50;;;;;;;12.40;64.40;98468.41;6232039;22;20015;-73
2022/10/04 10:19:47;;;;;;;6.38;3.88;;;;;;;12.20;65.90;98478.31;6230196;22;20024;-75
2022/10/04 10:23:05;;;;;;;8.30;4.30;;;;;;;12.21;66.15;98516.56;6180945;22;20023;-73
2022/10/04 10:25:40;;;;;;;6.15;4.15;;;;;;;11.87;69.23;98549.16;6202964;22;20015;-73
2022/10/04 10:28:09;;;;;;;13.75;4.53;;;;;;;11.49;72.30;98546.56;6201740;22;20478;-74
2022/10/04 10:30:55;;;;;;;5.55;3.22;;;;;;;11.22;72.96;98563.25;6227165;22;20019;-73
2022/10/04 10:33:32;;;;;;;4.38;2.63;;;;;;;10.62;74.57;98577.59;6201570;22;20064;-74
2022/10/04 10:36:08;;;;;;;3.17;2.53;;;;;;;10.26;76.78;98587.88;6201231;22;20019;-75
2022/10/04 10:39:10;;;;;;;3.00;1.90;;;;;;;9.89;77.04;98606.13;6227189;22;20038;-73
2022/10/04 10:41:47;;;;;;;2.72;2.35;;;;;;;9.69;77.22;98629.13;6230810;22;20387;-73
2022/10/04 10:44:41;;;;;;;2.95;1.48;;;;;;;9.63;76.29;98626.09;6230316;22;20023;-74
2022/10/04 10:47:25;;;;;;;2.58;1.63;;;;;;;9.38;77.31;98622.81;6108908;23;20530;-73
2022/10/04 10:50:26;;;;;;;1.27;1.17;;;;;;;9.26;78.83;98628.31;6086405;23;20021;-76
2022/10/04 10:53:09;;;;;;;1.58;1.48;;;;;;;9.25;80.10;98624.00;6059988;23;20053;-72
2022/10/04 10:56:02;;;;;;;2.15;1.50;;;;;;;9.09;81.24;98627.03;6109805;23;20523;-76
2022/10/04 10:58:45;;;;;;;2.35;1.95;;;;;;;9.21;80.41;98639.34;6060323;23;20084;-77
2022/10/04 11:01:13;;;;;;;2.38;1.30;;;;;;;9.17;79.87;98653.00;6083493;23;20018;-72
2022/10/04 11:03:57;;;;;;;1.83;1.73;;;;;;;8.97;79.96;98652.81;6059637;23;20310;-79
2022/10/04 11:06:42;;;;;;;1.73;1.63;;;;;;;8.78;79.92;98655.25;6110195;23;20017;-78
2022/10/04 11:09:29;;;;;;;1.23;0.82;;;;;;;8.71;80.60;98654.88;6060245;23;20109;-72
2022/10/04 11:12:12;;;;;;;8.15;1.73;;;;;;;8.62;81.78;98654.78;6106994;23;20014;-72
2022/10/04 11:15:05;;;;;;;1.23;1.13;;;;;;;8.71;82.75;98659.34;6057759;23;20041;-73
2022/10/04 11:17:58;;;;;;;0.88;0.88;;;;;;;8.90;82.20;98654.28;6082202;23;20072;-72
2022/10/04 11:21:01;;;;;;;2.22;1.60;;;;;;;8.83;80.65;98655.72;6017468;23;20090;-73
2022/10/04 11:23:50;;;;;;;2.13;1.45;;;;;;;9.02;80.21;98657.75;5981674;23;20023;-79
2022/10/04 11:26:46;;;;;;;1.35;0.77;;;;;;;8.89;79.82;98657.91;6030524;23;20018;-72
2022/10/04 11:29:25;;;;;;;4.93;1.80;;;;;;;8.69;79.89;98675.41;6052816;23;20070;-74
2022/10/04 11:31:58;;;;;;;2.08;1.80;;;;;;;8.62;80.02;98670.72;6032675;23;20100;-78
2022/10/04 11:35:00;;;;;;;1.65;1.52;;;;;;;8.50;80.69;98661.06;6057258;23;20022;-77
2022/10/04 11:37:40;;;;;;;2.30;1.42;;;;;;;8.41;80.79;98669.75;6033015;23;20049;-79
2022/10/04 11:40:16;;;;;;;3.58;1.50;;;;;;;8.46;81.37;98673.75;6044189;23;20519;-79
2022/10/04 11:43:10;;;;;;;4.25;2.08;;;;;;;8.37;81.71;98682.41;6012033;23;20145;-75
2022/10/04 11:46:11;;;;;;;3.53;1.48;;;;;;;8.54;81.33;98684.63;5918264;24;20042;-76
2022/10/04 11:49:09;;;;;;;1.95;1.77;;;;;;;8.62;81.20;98678.69;5937535;24;20024;-71
2022/10/04 11:52:08;;;;;;;1.80;1.42;;;;;;;8.52;81.56;98680.38;5935126;24;20024;-73
2022/10/04 11:55:00;;;;;;;2.53;1.95;;;;;;;8.42;82.23;98680.25;5935805;24;20020;-73
2022/10/04 11:57:34;;;;;;;2.03;1.27;;;;;;;8.59;82.46;98684.22;5995944;23;20078;-74
2022/10/04 12:00:13;;;;;;;3.03;2.22;;;;;;;8.63;82.50;98678.56;6029141;23;20041;-71
2022/10/04 12:03:12;;;;;;;7.22;3.92;;;;;;;8.85;82.46;98688.34;6029446;23;20496;-74
2022/10/04 12:05:49;;;;;;;1.70;1.60;;;;;;;8.98;81.73;98681.09;6036711;23;20331;-72
2022/10/04 12:08:41;;;;;;;2.08;1.75;;;;;;;8.98;81.42;98678.44;6052540;23;20046;-74
2022/10/04 12:11:14;;;;;;;3.00;2.13;;;;;;;8.89;81.53;98681.81;6053881;23;20026;-75
2022/10/04 12:14:22;;;;;;;5.47;1.80;;;;;;;8.97;81.30;98692.69;6066566;23;20002;-72
2022/10/04 12:17:07;;;;;;;2.53;2.00;;;;;;;8.89;80.94;98691.63;5994863;23;20250;-72
2022/10/04 12:19:38;;;;;;;1.52;1.33;;;;;;;9.23;80.83;98692.41;6018049;23;20023;-71
2022/10/04 12:22:27;;;;;;;4.10;2.40;;;;;;;9.08;79.44;98697.13;6053037;23;20029;-79
2022/10/04 12:25:13;;;;;;;3.05;2.00;;;;;;;9.10;80.53;98687.22;6090856;23;20020;-69
2022/10/04 12:28:15;;;;;;;2.95;1.85;;;;;;;9.17;80.34;98692.88;6113975;23;20022;-70
2022/10/04 12:31:01;;;;;;;2.15;1.08;;;;;;;9.38;80.65;98696.47;6102922;23;20061;-73
2022/10/04 12:33:36;;;;;;;4.30;2.33;;;;;;;9.41;79.64;98693.56;6079493;23;20021;-70
2022/10/04 12:36:13;;;;;;;1.60;1.50;;;;;;;9.51;78.92;98710.44;6107358;23;20021;-75
2022/10/04 12:39:07;;;;;;;5.65;2.33;;;;;;;9.38;78.73;98713.25;6034873;23;20009;-72